sensor_id;sensor_type;location;lat;lon;timestamp;P1;durP1;ratioP1;P2;durP2;ratioP2
18999;SDS011;9633;50.980;13.850;2023-03-03T00:00:17;59.85;;;35.03;;
18999;SDS011;9633;50.980;13.850;2023-03-03T00:01:49;59.08;;;32.72;;
18999;SDS011;9633;50.980;13.850;2023-03-03T00:03:23;55.35;;;31.65;;
18999;SDS011;9633;50.980;13.850;2023-03-03T00:04:56;58.53;;;31.10;;
18999;SDS011;9633;50.980;13.850;2023-03-03T00:06:29;55.75;;;32.83;;
18999;SDS011;9633;50.980;13.850;2023-03-03T00:08:02;53.38;;;30.42;;
18999;SDS011;9633;50.980;13.850;2023-03-03T00:09:35;56.15;;;30.90;;
18999;SDS011;9633;50.980;13.850;2023-03-03T00:11:08;55.03;;;32.03;;
18999;SDS011;9633;50.980;13.850;2023-03-03T00:12:45;55.33;;;31.42;;
18999;SDS011;9633;50.980;13.850;2023-03-03T00:14:20;57.28;;;32.55;;
18999;SDS011;9633;50.980;13.850;2023-03-03T00:16:04;56.15;;;31.67;;
18999;SDS011;9633;50.980;13.850;2023-03-03T00:17:45;57.70;;;31.80;;
18999;SDS011;9633;50.980;13.850;2023-03-03T00:19:19;60.15;;;32.42;;
18999;SDS011;9633;50.980;13.850;2023-03-03T00:20:54;55.42;;;31.33;;
18999;SDS011;9633;50.980;13.850;2023-03-03T00:22:29;56.40;;;30.95;;
18999;SDS011;9633;50.980;13.850;2023-03-03T00:26:14;53.45;;;29.80;;
18999;SDS011;9633;50.980;13.850;2023-03-03T00:27:51;51.58;;;30.08;;
18999;SDS011;9633;50.980;13.850;2023-03-03T00:29:28;55.40;;;30.90;;
18999;SDS011;9633;50.980;13.850;2023-03-03T00:31:11;51.65;;;31.05;;
18999;SDS011;9633;50.980;13.850;2023-03-03T00:32:48;55.00;;;30.48;;
18999;SDS011;9633;50.980;13.850;2023-03-03T00:34:24;49.58;;;29.98;;
18999;SDS011;9633;50.980;13.850;2023-03-03T00:35:58;49.70;;;30.10;;
18999;SDS011;9633;50.980;13.850;2023-03-03T00:37:53;55.60;;;30.35;;
18999;SDS011;9633;50.980;13.850;2023-03-03T00:39:28;53.03;;;31.33;;
18999;SDS011;9633;50.980;13.850;2023-03-03T00:41:03;53.78;;;31.33;;
18999;SDS011;9633;50.980;13.850;2023-03-03T00:42:48;50.80;;;31.00;;
18999;SDS011;9633;50.980;13.850;2023-03-03T00:44:30;51.35;;;31.40;;
18999;SDS011;9633;50.980;13.850;2023-03-03T00:46:14;56.22;;;31.33;;
18999;SDS011;9633;50.980;13.850;2023-03-03T00:47:49;54.95;;;32.15;;
18999;SDS011;9633;50.980;13.850;2023-03-03T00:49:23;57.83;;;31.27;;
18999;SDS011;9633;50.980;13.850;2023-03-03T00:50:58;56.88;;;32.72;;
18999;SDS011;9633;50.980;13.850;2023-03-03T00:52:34;56.35;;;32.65;;
18999;SDS011;9633;50.980;13.850;2023-03-03T00:54:07;56.83;;;31.00;;
18999;SDS011;9633;50.980;13.850;2023-03-03T00:55:40;60.05;;;33.58;;
18999;SDS011;9633;50.980;13.850;2023-03-03T00:57:12;50.63;;;31.00;;
18999;SDS011;9633;50.980;13.850;2023-03-03T00:58:46;58.05;;;31.23;;
18999;SDS011;9633;50.980;13.850;2023-03-03T01:00:22;53.40;;;31.85;;
18999;SDS011;9633;50.980;13.850;2023-03-03T01:01:55;51.03;;;30.25;;
18999;SDS011;9633;50.980;13.850;2023-03-03T01:03:28;51.72;;;30.15;;
18999;SDS011;9633;50.980;13.850;2023-03-03T01:05:02;53.75;;;31.02;;
18999;SDS011;9633;50.980;13.850;2023-03-03T01:06:35;52.47;;;31.45;;
18999;SDS011;9633;50.980;13.850;2023-03-03T01:08:08;51.65;;;30.70;;
18999;SDS011;9633;50.980;13.850;2023-03-03T01:09:41;51.72;;;31.60;;
18999;SDS011;9633;50.980;13.850;2023-03-03T01:11:14;53.25;;;31.52;;
18999;SDS011;9633;50.980;13.850;2023-03-03T01:12:53;52.58;;;31.58;;
18999;SDS011;9633;50.980;13.850;2023-03-03T01:14:28;51.83;;;32.05;;
18999;SDS011;9633;50.980;13.850;2023-03-03T01:16:01;58.45;;;33.47;;
18999;SDS011;9633;50.980;13.850;2023-03-03T01:17:36;70.68;;;38.95;;
18999;SDS011;9633;50.980;13.850;2023-03-03T01:19:10;73.63;;;38.67;;
18999;SDS011;9633;50.980;13.850;2023-03-03T01:20:44;73.95;;;39.10;;
18999;SDS011;9633;50.980;13.850;2023-03-03T01:22:17;80.68;;;41.28;;
18999;SDS011;9633;50.980;13.850;2023-03-03T01:23:49;105.13;;;48.60;;
18999;SDS011;9633;50.980;13.850;2023-03-03T01:25:23;106.20;;;47.55;;
18999;SDS011;9633;50.980;13.850;2023-03-03T01:26:56;108.07;;;50.30;;
18999;SDS011;9633;50.980;13.850;2023-03-03T01:28:28;159.82;;;59.88;;
18999;SDS011;9633;50.980;13.850;2023-03-03T01:30:01;159.63;;;58.13;;
18999;SDS011;9633;50.980;13.850;2023-03-03T01:31:35;165.30;;;57.28;;
18999;SDS011;9633;50.980;13.850;2023-03-03T01:33:09;183.45;;;62.05;;
18999;SDS011;9633;50.980;13.850;2023-03-03T01:34:42;189.90;;;64.18;;
18999;SDS011;9633;50.980;13.850;2023-03-03T01:36:15;182.38;;;61.05;;
18999;SDS011;9633;50.980;13.850;2023-03-03T01:37:53;217.95;;;71.38;;
18999;SDS011;9633;50.980;13.850;2023-03-03T01:39:27;214.00;;;70.10;;
18999;SDS011;9633;50.980;13.850;2023-03-03T01:41:00;213.38;;;70.15;;
18999;SDS011;9633;50.980;13.850;2023-03-03T01:42:34;189.88;;;63.85;;
18999;SDS011;9633;50.980;13.850;2023-03-03T01:44:08;185.85;;;64.75;;
18999;SDS011;9633;50.980;13.850;2023-03-03T01:47:53;171.73;;;62.75;;
18999;SDS011;9633;50.980;13.850;2023-03-03T01:49:32;175.00;;;61.72;;
18999;SDS011;9633;50.980;13.850;2023-03-03T01:51:09;159.93;;;60.47;;
18999;SDS011;9633;50.980;13.850;2023-03-03T01:52:47;151.40;;;59.38;;
18999;SDS011;9633;50.980;13.850;2023-03-03T01:54:21;165.10;;;61.10;;
18999;SDS011;9633;50.980;13.850;2023-03-03T01:55:58;151.88;;;60.25;;
18999;SDS011;9633;50.980;13.850;2023-03-03T01:57:36;148.05;;;55.95;;
18999;SDS011;9633;50.980;13.850;2023-03-03T01:59:12;151.32;;;58.00;;
18999;SDS011;9633;50.980;13.850;2023-03-03T02:00:48;160.70;;;59.58;;
18999;SDS011;9633;50.980;13.850;2023-03-03T02:02:23;163.98;;;58.08;;
18999;SDS011;9633;50.980;13.850;2023-03-03T02:03:59;190.13;;;65.85;;
18999;SDS011;9633;50.980;13.850;2023-03-03T02:05:33;157.10;;;56.30;;
18999;SDS011;9633;50.980;13.850;2023-03-03T02:07:08;160.50;;;56.28;;
18999;SDS011;9633;50.980;13.850;2023-03-03T02:08:43;186.85;;;61.13;;
18999;SDS011;9633;50.980;13.850;2023-03-03T02:10:23;170.32;;;57.45;;
18999;SDS011;9633;50.980;13.850;2023-03-03T02:11:58;161.23;;;55.78;;
18999;SDS011;9633;50.980;13.850;2023-03-03T02:13:34;173.18;;;57.10;;
18999;SDS011;9633;50.980;13.850;2023-03-03T02:15:14;201.43;;;62.97;;
18999;SDS011;9633;50.980;13.850;2023-03-03T02:16:48;214.27;;;60.08;;
18999;SDS011;9633;50.980;13.850;2023-03-03T02:18:22;335.85;;;78.13;;
18999;SDS011;9633;50.980;13.850;2023-03-03T02:19:57;257.50;;;68.35;;
18999;SDS011;9633;50.980;13.850;2023-03-03T02:21:37;269.20;;;68.22;;
18999;SDS011;9633;50.980;13.850;2023-03-03T02:23:12;188.73;;;60.10;;
18999;SDS011;9633;50.980;13.850;2023-03-03T02:24:55;208.77;;;62.13;;
18999;SDS011;9633;50.980;13.850;2023-03-03T02:26:34;221.43;;;64.88;;
18999;SDS011;9633;50.980;13.850;2023-03-03T02:28:11;208.50;;;60.75;;
18999;SDS011;9633;50.980;13.850;2023-03-03T02:29:44;189.80;;;57.72;;
18999;SDS011;9633;50.980;13.850;2023-03-03T02:31:18;184.18;;;60.83;;
18999;SDS011;9633;50.980;13.850;2023-03-03T02:32:52;167.77;;;55.30;;
18999;SDS011;9633;50.980;13.850;2023-03-03T02:34:25;153.02;;;53.78;;
18999;SDS011;9633;50.980;13.850;2023-03-03T02:35:59;145.18;;;53.42;;
18999;SDS011;9633;50.980;13.850;2023-03-03T02:37:32;146.18;;;51.13;;
18999;SDS011;9633;50.980;13.850;2023-03-03T02:39:06;128.38;;;48.92;;
18999;SDS011;9633;50.980;13.850;2023-03-03T02:40:43;123.28;;;45.30;;
18999;SDS011;9633;50.980;13.850;2023-03-03T02:42:23;129.95;;;47.97;;
18999;SDS011;9633;50.980;13.850;2023-03-03T02:44:02;123.68;;;48.80;;
18999;SDS011;9633;50.980;13.850;2023-03-03T02:45:41;133.95;;;50.33;;
18999;SDS011;9633;50.980;13.850;2023-03-03T02:47:15;122.97;;;47.25;;
18999;SDS011;9633;50.980;13.850;2023-03-03T02:48:48;126.35;;;48.90;;
18999;SDS011;9633;50.980;13.850;2023-03-03T02:50:20;123.20;;;47.90;;
18999;SDS011;9633;50.980;13.850;2023-03-03T02:51:55;129.63;;;49.10;;
18999;SDS011;9633;50.980;13.850;2023-03-03T02:53:28;131.50;;;51.40;;
18999;SDS011;9633;50.980;13.850;2023-03-03T02:55:02;122.13;;;47.38;;
18999;SDS011;9633;50.980;13.850;2023-03-03T02:56:35;125.35;;;45.67;;
18999;SDS011;9633;50.980;13.850;2023-03-03T02:58:10;114.72;;;46.60;;
18999;SDS011;9633;50.980;13.850;2023-03-03T02:59:43;122.05;;;46.50;;
18999;SDS011;9633;50.980;13.850;2023-03-03T03:01:20;124.05;;;47.75;;
18999;SDS011;9633;50.980;13.850;2023-03-03T03:02:53;139.25;;;56.38;;
18999;SDS011;9633;50.980;13.850;2023-03-03T03:04:27;137.45;;;55.55;;
18999;SDS011;9633;50.980;13.850;2023-03-03T03:06:00;128.23;;;50.80;;
18999;SDS011;9633;50.980;13.850;2023-03-03T03:07:33;133.15;;;48.22;;
18999;SDS011;9633;50.980;13.850;2023-03-03T03:09:07;128.27;;;54.65;;
18999;SDS011;9633;50.980;13.850;2023-03-03T03:10:40;129.57;;;54.55;;
18999;SDS011;9633;50.980;13.850;2023-03-03T03:12:14;139.57;;;60.75;;
18999;SDS011;9633;50.980;13.850;2023-03-03T03:13:52;125.63;;;50.75;;
18999;SDS011;9633;50.980;13.850;2023-03-03T03:15:26;136.02;;;53.92;;
18999;SDS011;9633;50.980;13.850;2023-03-03T03:16:59;144.35;;;52.50;;
18999;SDS011;9633;50.980;13.850;2023-03-03T03:18:33;141.38;;;54.42;;
18999;SDS011;9633;50.980;13.850;2023-03-03T03:20:06;181.45;;;63.80;;
18999;SDS011;9633;50.980;13.850;2023-03-03T03:21:40;174.02;;;56.13;;
18999;SDS011;9633;50.980;13.850;2023-03-03T03:23:15;177.93;;;57.35;;
18999;SDS011;9633;50.980;13.850;2023-03-03T03:24:48;248.32;;;84.03;;
18999;SDS011;9633;50.980;13.850;2023-03-03T03:26:21;230.82;;;67.82;;
18999;SDS011;9633;50.980;13.850;2023-03-03T03:27:56;214.98;;;68.05;;
18999;SDS011;9633;50.980;13.850;2023-03-03T03:29:30;219.48;;;69.82;;
18999;SDS011;9633;50.980;13.850;2023-03-03T03:31:03;216.15;;;64.90;;
18999;SDS011;9633;50.980;13.850;2023-03-03T03:32:38;267.15;;;82.15;;
18999;SDS011;9633;50.980;13.850;2023-03-03T03:34:12;245.63;;;69.80;;
18999;SDS011;9633;50.980;13.850;2023-03-03T03:35:45;286.33;;;82.72;;
18999;SDS011;9633;50.980;13.850;2023-03-03T03:37:20;252.70;;;73.22;;
18999;SDS011;9633;50.980;13.850;2023-03-03T03:38:53;266.48;;;80.47;;
18999;SDS011;9633;50.980;13.850;2023-03-03T03:40:26;236.88;;;67.90;;
18999;SDS011;9633;50.980;13.850;2023-03-03T03:41:59;230.95;;;67.93;;
18999;SDS011;9633;50.980;13.850;2023-03-03T03:43:32;250.85;;;73.60;;
18999;SDS011;9633;50.980;13.850;2023-03-03T03:45:08;239.50;;;69.88;;
18999;SDS011;9633;50.980;13.850;2023-03-03T03:46:47;256.30;;;76.10;;
18999;SDS011;9633;50.980;13.850;2023-03-03T03:48:21;258.85;;;77.05;;
18999;SDS011;9633;50.980;13.850;2023-03-03T03:49:55;266.60;;;73.50;;
18999;SDS011;9633;50.980;13.850;2023-03-03T03:51:28;285.38;;;81.55;;
18999;SDS011;9633;50.980;13.850;2023-03-03T03:53:02;229.65;;;64.57;;
18999;SDS011;9633;50.980;13.850;2023-03-03T03:54:35;240.77;;;69.05;;
18999;SDS011;9633;50.980;13.850;2023-03-03T03:56:08;227.60;;;62.13;;
18999;SDS011;9633;50.980;13.850;2023-03-03T03:57:42;226.60;;;63.25;;
18999;SDS011;9633;50.980;13.850;2023-03-03T03:59:15;244.50;;;69.00;;
18999;SDS011;9633;50.980;13.850;2023-03-03T04:00:49;240.05;;;64.78;;
18999;SDS011;9633;50.980;13.850;2023-03-03T04:02:22;205.02;;;63.58;;
18999;SDS011;9633;50.980;13.850;2023-03-03T04:03:56;255.30;;;74.00;;
18999;SDS011;9633;50.980;13.850;2023-03-03T04:05:29;222.32;;;62.47;;
18999;SDS011;9633;50.980;13.850;2023-03-03T04:07:02;220.23;;;63.10;;
18999;SDS011;9633;50.980;13.850;2023-03-03T04:08:35;244.50;;;70.28;;
18999;SDS011;9633;50.980;13.850;2023-03-03T04:10:09;246.23;;;73.20;;
18999;SDS011;9633;50.980;13.850;2023-03-03T04:11:43;202.32;;;57.63;;
18999;SDS011;9633;50.980;13.850;2023-03-03T04:13:16;227.85;;;62.42;;
18999;SDS011;9633;50.980;13.850;2023-03-03T04:14:50;209.63;;;59.42;;
18999;SDS011;9633;50.980;13.850;2023-03-03T04:16:25;213.70;;;65.28;;
18999;SDS011;9633;50.980;13.850;2023-03-03T04:17:58;185.60;;;60.97;;
18999;SDS011;9633;50.980;13.850;2023-03-03T04:19:31;166.60;;;55.65;;
18999;SDS011;9633;50.980;13.850;2023-03-03T04:21:05;156.25;;;51.70;;
18999;SDS011;9633;50.980;13.850;2023-03-03T04:22:38;149.05;;;53.33;;
18999;SDS011;9633;50.980;13.850;2023-03-03T04:24:11;127.80;;;48.25;;
18999;SDS011;9633;50.980;13.850;2023-03-03T04:25:44;152.30;;;54.95;;
18999;SDS011;9633;50.980;13.850;2023-03-03T04:27:18;151.55;;;50.80;;
18999;SDS011;9633;50.980;13.850;2023-03-03T04:28:52;141.73;;;47.72;;
18999;SDS011;9633;50.980;13.850;2023-03-03T04:30:26;156.07;;;60.03;;
18999;SDS011;9633;50.980;13.850;2023-03-03T04:32:02;151.63;;;53.78;;
18999;SDS011;9633;50.980;13.850;2023-03-03T04:33:36;161.43;;;55.40;;
18999;SDS011;9633;50.980;13.850;2023-03-03T04:35:10;147.43;;;55.08;;
18999;SDS011;9633;50.980;13.850;2023-03-03T04:36:44;157.30;;;59.33;;
18999;SDS011;9633;50.980;13.850;2023-03-03T04:38:18;183.68;;;61.17;;
18999;SDS011;9633;50.980;13.850;2023-03-03T04:39:52;172.35;;;60.88;;
18999;SDS011;9633;50.980;13.850;2023-03-03T04:41:26;173.98;;;57.60;;
18999;SDS011;9633;50.980;13.850;2023-03-03T04:42:59;182.13;;;58.13;;
18999;SDS011;9633;50.980;13.850;2023-03-03T04:44:33;167.10;;;53.35;;
18999;SDS011;9633;50.980;13.850;2023-03-03T04:46:05;184.70;;;57.97;;
18999;SDS011;9633;50.980;13.850;2023-03-03T04:47:42;184.95;;;60.03;;
18999;SDS011;9633;50.980;13.850;2023-03-03T04:49:14;195.02;;;59.20;;
18999;SDS011;9633;50.980;13.850;2023-03-03T04:50:48;186.68;;;59.10;;
18999;SDS011;9633;50.980;13.850;2023-03-03T04:52:23;195.25;;;59.40;;
18999;SDS011;9633;50.980;13.850;2023-03-03T04:53:55;188.30;;;57.35;;
18999;SDS011;9633;50.980;13.850;2023-03-03T04:55:28;190.98;;;57.15;;
18999;SDS011;9633;50.980;13.850;2023-03-03T04:57:01;200.52;;;62.22;;
18999;SDS011;9633;50.980;13.850;2023-03-03T04:58:35;216.07;;;64.43;;
18999;SDS011;9633;50.980;13.850;2023-03-03T05:00:10;226.45;;;66.68;;
18999;SDS011;9633;50.980;13.850;2023-03-03T05:01:44;229.23;;;65.25;;
18999;SDS011;9633;50.980;13.850;2023-03-03T05:03:19;202.57;;;57.92;;
18999;SDS011;9633;50.980;13.850;2023-03-03T05:04:53;214.02;;;58.95;;
18999;SDS011;9633;50.980;13.850;2023-03-03T05:06:26;209.00;;;57.33;;
18999;SDS011;9633;50.980;13.850;2023-03-03T05:07:59;216.30;;;58.40;;
18999;SDS011;9633;50.980;13.850;2023-03-03T05:09:32;249.73;;;73.55;;
18999;SDS011;9633;50.980;13.850;2023-03-03T05:11:05;178.98;;;52.78;;
18999;SDS011;9633;50.980;13.850;2023-03-03T05:12:39;164.43;;;49.78;;
18999;SDS011;9633;50.980;13.850;2023-03-03T05:14:12;199.25;;;60.55;;
18999;SDS011;9633;50.980;13.850;2023-03-03T05:15:48;177.98;;;55.25;;
18999;SDS011;9633;50.980;13.850;2023-03-03T05:17:22;182.40;;;52.33;;
18999;SDS011;9633;50.980;13.850;2023-03-03T05:18:57;213.57;;;64.78;;
18999;SDS011;9633;50.980;13.850;2023-03-03T05:20:30;169.98;;;51.00;;
18999;SDS011;9633;50.980;13.850;2023-03-03T05:22:02;159.82;;;48.60;;
18999;SDS011;9633;50.980;13.850;2023-03-03T05:23:35;173.68;;;52.55;;
18999;SDS011;9633;50.980;13.850;2023-03-03T05:25:08;153.90;;;48.72;;
18999;SDS011;9633;50.980;13.850;2023-03-03T05:26:42;148.35;;;47.72;;
18999;SDS011;9633;50.980;13.850;2023-03-03T05:28:16;142.85;;;48.33;;
18999;SDS011;9633;50.980;13.850;2023-03-03T05:29:49;139.25;;;46.65;;
18999;SDS011;9633;50.980;13.850;2023-03-03T05:31:22;149.32;;;47.75;;
18999;SDS011;9633;50.980;13.850;2023-03-03T05:32:57;136.48;;;45.30;;
18999;SDS011;9633;50.980;13.850;2023-03-03T05:34:31;122.55;;;41.92;;
18999;SDS011;9633;50.980;13.850;2023-03-03T05:36:04;136.93;;;44.67;;
18999;SDS011;9633;50.980;13.850;2023-03-03T05:37:38;109.65;;;41.08;;
18999;SDS011;9633;50.980;13.850;2023-03-03T05:39:15;123.72;;;44.85;;
18999;SDS011;9633;50.980;13.850;2023-03-03T05:40:48;130.02;;;46.60;;
18999;SDS011;9633;50.980;13.850;2023-03-03T05:42:21;129.43;;;44.97;;
18999;SDS011;9633;50.980;13.850;2023-03-03T05:43:54;122.88;;;41.55;;
18999;SDS011;9633;50.980;13.850;2023-03-03T05:45:28;124.10;;;41.28;;
18999;SDS011;9633;50.980;13.850;2023-03-03T05:47:01;133.05;;;43.60;;
18999;SDS011;9633;50.980;13.850;2023-03-03T05:48:34;122.10;;;41.85;;
18999;SDS011;9633;50.980;13.850;2023-03-03T05:50:09;123.22;;;42.30;;
18999;SDS011;9633;50.980;13.850;2023-03-03T05:51:43;117.68;;;43.47;;
18999;SDS011;9633;50.980;13.850;2023-03-03T05:53:16;123.22;;;43.47;;
18999;SDS011;9633;50.980;13.850;2023-03-03T05:54:49;117.50;;;43.08;;
18999;SDS011;9633;50.980;13.850;2023-03-03T05:56:22;120.82;;;42.30;;
18999;SDS011;9633;50.980;13.850;2023-03-03T05:57:56;130.27;;;42.55;;
18999;SDS011;9633;50.980;13.850;2023-03-03T05:59:29;118.95;;;42.60;;
18999;SDS011;9633;50.980;13.850;2023-03-03T06:01:02;118.32;;;41.78;;
18999;SDS011;9633;50.980;13.850;2023-03-03T06:02:35;114.72;;;41.60;;
18999;SDS011;9633;50.980;13.850;2023-03-03T06:04:08;119.88;;;43.58;;
18999;SDS011;9633;50.980;13.850;2023-03-03T06:05:43;116.10;;;41.45;;
18999;SDS011;9633;50.980;13.850;2023-03-03T06:07:16;118.75;;;42.83;;
18999;SDS011;9633;50.980;13.850;2023-03-03T06:08:49;133.23;;;43.13;;
18999;SDS011;9633;50.980;13.850;2023-03-03T06:10:27;117.35;;;41.65;;
18999;SDS011;9633;50.980;13.850;2023-03-03T06:12:03;119.13;;;43.97;;
18999;SDS011;9633;50.980;13.850;2023-03-03T06:13:36;136.63;;;44.58;;
18999;SDS011;9633;50.980;13.850;2023-03-03T06:15:09;138.18;;;46.85;;
18999;SDS011;9633;50.980;13.850;2023-03-03T06:16:43;130.40;;;45.08;;
18999;SDS011;9633;50.980;13.850;2023-03-03T06:18:16;131.63;;;42.28;;
18999;SDS011;9633;50.980;13.850;2023-03-03T06:19:49;134.75;;;44.70;;
18999;SDS011;9633;50.980;13.850;2023-03-03T06:21:24;135.75;;;42.70;;
18999;SDS011;9633;50.980;13.850;2023-03-03T06:22:57;128.65;;;41.33;;
18999;SDS011;9633;50.980;13.850;2023-03-03T06:24:31;133.52;;;42.45;;
18999;SDS011;9633;50.980;13.850;2023-03-03T06:26:04;117.15;;;40.75;;
18999;SDS011;9633;50.980;13.850;2023-03-03T06:27:37;122.40;;;41.88;;
18999;SDS011;9633;50.980;13.850;2023-03-03T06:29:10;118.57;;;40.60;;
18999;SDS011;9633;50.980;13.850;2023-03-03T06:30:46;123.68;;;41.35;;
18999;SDS011;9633;50.980;13.850;2023-03-03T06:32:19;124.10;;;43.35;;
18999;SDS011;9633;50.980;13.850;2023-03-03T06:33:52;117.57;;;41.25;;
18999;SDS011;9633;50.980;13.850;2023-03-03T06:35:25;116.63;;;44.03;;
18999;SDS011;9633;50.980;13.850;2023-03-03T06:37:00;135.70;;;46.63;;
18999;SDS011;9633;50.980;13.850;2023-03-03T06:38:33;150.27;;;49.38;;
18999;SDS011;9633;50.980;13.850;2023-03-03T06:40:07;142.95;;;44.65;;
18999;SDS011;9633;50.980;13.850;2023-03-03T06:41:41;164.43;;;50.00;;
18999;SDS011;9633;50.980;13.850;2023-03-03T06:43:14;152.98;;;47.63;;
18999;SDS011;9633;50.980;13.850;2023-03-03T06:44:47;156.68;;;48.60;;
18999;SDS011;9633;50.980;13.850;2023-03-03T06:46:21;170.40;;;49.53;;
18999;SDS011;9633;50.980;13.850;2023-03-03T06:47:54;163.93;;;48.97;;
18999;SDS011;9633;50.980;13.850;2023-03-03T06:49:27;151.50;;;46.47;;
18999;SDS011;9633;50.980;13.850;2023-03-03T06:51:01;163.57;;;52.63;;
18999;SDS011;9633;50.980;13.850;2023-03-03T06:52:37;174.23;;;51.28;;
18999;SDS011;9633;50.980;13.850;2023-03-03T06:54:11;187.52;;;52.47;;
18999;SDS011;9633;50.980;13.850;2023-03-03T06:55:45;186.68;;;55.78;;
18999;SDS011;9633;50.980;13.850;2023-03-03T06:57:19;177.00;;;51.60;;
18999;SDS011;9633;50.980;13.850;2023-03-03T06:58:57;183.68;;;57.25;;
18999;SDS011;9633;50.980;13.850;2023-03-03T07:00:33;179.52;;;56.20;;
18999;SDS011;9633;50.980;13.850;2023-03-03T07:02:10;187.43;;;52.00;;
18999;SDS011;9633;50.980;13.850;2023-03-03T07:03:47;175.45;;;48.28;;
18999;SDS011;9633;50.980;13.850;2023-03-03T07:05:20;176.30;;;50.38;;
18999;SDS011;9633;50.980;13.850;2023-03-03T07:06:55;192.18;;;54.25;;
18999;SDS011;9633;50.980;13.850;2023-03-03T07:08:30;191.02;;;54.28;;
18999;SDS011;9633;50.980;13.850;2023-03-03T07:10:05;191.15;;;55.30;;
18999;SDS011;9633;50.980;13.850;2023-03-03T07:11:44;164.82;;;46.80;;
18999;SDS011;9633;50.980;13.850;2023-03-03T07:13:18;171.15;;;52.75;;
18999;SDS011;9633;50.980;13.850;2023-03-03T07:14:54;167.45;;;47.90;;
18999;SDS011;9633;50.980;13.850;2023-03-03T07:16:33;164.82;;;47.00;;
18999;SDS011;9633;50.980;13.850;2023-03-03T07:18:08;139.73;;;40.90;;
18999;SDS011;9633;50.980;13.850;2023-03-03T07:20:09;169.00;;;46.65;;
18999;SDS011;9633;50.980;13.850;2023-03-03T07:21:49;167.82;;;45.92;;
18999;SDS011;9633;50.980;13.850;2023-03-03T07:23:24;153.30;;;46.22;;
18999;SDS011;9633;50.980;13.850;2023-03-03T07:25:00;156.60;;;48.40;;
18999;SDS011;9633;50.980;13.850;2023-03-03T07:26:49;123.25;;;40.55;;
18999;SDS011;9633;50.980;13.850;2023-03-03T07:28:23;136.95;;;41.40;;
18999;SDS011;9633;50.980;13.850;2023-03-03T07:30:01;135.10;;;42.15;;
18999;SDS011;9633;50.980;13.850;2023-03-03T07:31:49;125.68;;;40.35;;
18999;SDS011;9633;50.980;13.850;2023-03-03T07:33:24;129.02;;;44.28;;
18999;SDS011;9633;50.980;13.850;2023-03-03T07:34:58;118.55;;;40.20;;
18999;SDS011;9633;50.980;13.850;2023-03-03T07:36:33;121.47;;;41.83;;
18999;SDS011;9633;50.980;13.850;2023-03-03T07:38:15;108.35;;;38.65;;
18999;SDS011;9633;50.980;13.850;2023-03-03T07:39:54;106.20;;;38.80;;
18999;SDS011;9633;50.980;13.850;2023-03-03T07:41:29;113.22;;;37.13;;
18999;SDS011;9633;50.980;13.850;2023-03-03T07:45:22;95.60;;;36.85;;
18999;SDS011;9633;50.980;13.850;2023-03-03T07:46:59;115.72;;;42.33;;
18999;SDS011;9633;50.980;13.850;2023-03-03T07:48:47;115.35;;;39.83;;
18999;SDS011;9633;50.980;13.850;2023-03-03T07:50:20;121.65;;;40.22;;
18999;SDS011;9633;50.980;13.850;2023-03-03T07:51:56;116.93;;;38.88;;
18999;SDS011;9633;50.980;13.850;2023-03-03T07:53:32;128.63;;;42.33;;
18999;SDS011;9633;50.980;13.850;2023-03-03T07:55:19;141.13;;;49.58;;
18999;SDS011;9633;50.980;13.850;2023-03-03T07:57:01;136.07;;;43.80;;
18999;SDS011;9633;50.980;13.850;2023-03-03T07:58:43;131.20;;;40.05;;
18999;SDS011;9633;50.980;13.850;2023-03-03T08:02:42;118.55;;;36.88;;
18999;SDS011;9633;50.980;13.850;2023-03-03T08:04:19;109.78;;;36.88;;
18999;SDS011;9633;50.980;13.850;2023-03-03T08:05:55;106.15;;;38.05;;
18999;SDS011;9633;50.980;13.850;2023-03-03T08:07:29;104.75;;;36.42;;
18999;SDS011;9633;50.980;13.850;2023-03-03T08:09:18;110.97;;;38.67;;
18999;SDS011;9633;50.980;13.850;2023-03-03T08:11:07;106.55;;;37.88;;
18999;SDS011;9633;50.980;13.850;2023-03-03T08:12:42;103.88;;;36.33;;
18999;SDS011;9633;50.980;13.850;2023-03-03T08:14:18;119.00;;;38.17;;
18999;SDS011;9633;50.980;13.850;2023-03-03T08:15:58;132.20;;;42.55;;
18999;SDS011;9633;50.980;13.850;2023-03-03T08:17:34;103.63;;;36.03;;
18999;SDS011;9633;50.980;13.850;2023-03-03T08:19:10;118.53;;;38.15;;
18999;SDS011;9633;50.980;13.850;2023-03-03T08:20:46;120.50;;;38.17;;
18999;SDS011;9633;50.980;13.850;2023-03-03T08:22:23;130.48;;;43.05;;
18999;SDS011;9633;50.980;13.850;2023-03-03T08:24:01;109.30;;;35.47;;
18999;SDS011;9633;50.980;13.850;2023-03-03T08:25:35;96.45;;;33.35;;
18999;SDS011;9633;50.980;13.850;2023-03-03T08:27:07;86.38;;;33.13;;
18999;SDS011;9633;50.980;13.850;2023-03-03T08:28:41;94.25;;;34.13;;
18999;SDS011;9633;50.980;13.850;2023-03-03T08:30:15;105.65;;;38.83;;
18999;SDS011;9633;50.980;13.850;2023-03-03T08:31:48;93.13;;;33.10;;
18999;SDS011;9633;50.980;13.850;2023-03-03T08:33:21;88.28;;;31.33;;
18999;SDS011;9633;50.980;13.850;2023-03-03T08:34:54;92.50;;;34.30;;
18999;SDS011;9633;50.980;13.850;2023-03-03T08:36:27;102.65;;;33.83;;
18999;SDS011;9633;50.980;13.850;2023-03-03T08:38:04;112.30;;;39.28;;
18999;SDS011;9633;50.980;13.850;2023-03-03T08:39:38;100.50;;;32.15;;
18999;SDS011;9633;50.980;13.850;2023-03-03T08:41:11;103.38;;;35.42;;
18999;SDS011;9633;50.980;13.850;2023-03-03T08:42:45;110.88;;;34.90;;
18999;SDS011;9633;50.980;13.850;2023-03-03T08:44:20;115.05;;;36.83;;
18999;SDS011;9633;50.980;13.850;2023-03-03T08:45:56;109.18;;;36.53;;
18999;SDS011;9633;50.980;13.850;2023-03-03T08:47:31;92.85;;;31.40;;
18999;SDS011;9633;50.980;13.850;2023-03-03T08:49:04;107.35;;;36.58;;
18999;SDS011;9633;50.980;13.850;2023-03-03T08:50:37;99.95;;;34.55;;
18999;SDS011;9633;50.980;13.850;2023-03-03T08:52:10;120.93;;;40.53;;
18999;SDS011;9633;50.980;13.850;2023-03-03T08:53:43;95.75;;;32.70;;
18999;SDS011;9633;50.980;13.850;2023-03-03T08:55:16;115.00;;;37.72;;
18999;SDS011;9633;50.980;13.850;2023-03-03T08:56:50;79.97;;;30.05;;
18999;SDS011;9633;50.980;13.850;2023-03-03T08:58:23;86.53;;;31.67;;
18999;SDS011;9633;50.980;13.850;2023-03-03T09:00:08;85.55;;;30.52;;
18999;SDS011;9633;50.980;13.850;2023-03-03T09:01:43;87.18;;;32.17;;
18999;SDS011;9633;50.980;13.850;2023-03-03T09:03:16;83.20;;;30.23;;
18999;SDS011;9633;50.980;13.850;2023-03-03T09:04:49;82.07;;;32.33;;
18999;SDS011;9633;50.980;13.850;2023-03-03T09:06:23;87.40;;;30.90;;
18999;SDS011;9633;50.980;13.850;2023-03-03T09:07:56;81.88;;;32.67;;
18999;SDS011;9633;50.980;13.850;2023-03-03T09:09:29;88.95;;;31.67;;
18999;SDS011;9633;50.980;13.850;2023-03-03T09:11:02;78.70;;;30.88;;
18999;SDS011;9633;50.980;13.850;2023-03-03T09:12:42;80.22;;;32.58;;
18999;SDS011;9633;50.980;13.850;2023-03-03T09:14:18;91.45;;;36.55;;
18999;SDS011;9633;50.980;13.850;2023-03-03T09:15:53;86.97;;;31.52;;
18999;SDS011;9633;50.980;13.850;2023-03-03T09:17:28;79.88;;;30.05;;